Time;durP1;ratioP1;P1;durP2;ratioP2;P2;SDS_P1;SDS_P2;PMS_P1;PMS_P2;Temp;Humidity;BMP_temperature;BMP_pressure;BME280_temperature;BME280_humidity;BME280_pressure;Samples;Min_cycle;Max_cycle;Signal;HPM_P1;HPM_P2
2021/05/31 00:02:13;;;;;;;5.30;2.70;;;;;;;14.89;38.12;95607.88;6935442;28;20300;-75
2021/05/31 00:05:38;;;;;;;3.53;2.90;;;;;;;14.94;38.39;95609.09;6955691;28;20704;-74
2021/05/31 00:08:59;;;;;;;8.17;2.40;;;;;;;14.92;38.12;95604.91;6959309;28;20226;-75
2021/05/31 00:12:23;;;;;;;2.77;2.50;;;;;;;14.90;37.91;95612.22;6980655;28;20305;-75
2021/05/31 00:15:46;;;;;;;5.00;2.50;;;;;;;14.87;38.06;95610.72;6960266;28;20305;-74
2021/05/31 00:19:07;;;;;;;2.80;2.57;;;;;;;14.80;37.81;95598.09;6940563;28;20274;-74
2021/05/31 00:22:27;;;;;;;2.87;2.53;;;;;;;14.74;38.23;95593.38;6956622;28;20260;-75
2021/05/31 00:25:48;;;;;;;4.43;2.80;;;;;;;14.72;37.94;95593.53;6970871;28;20226;-75
2021/05/31 00:29:08;;;;;;;4.97;2.50;;;;;;;14.73;38.10;95594.38;6928976;28;20219;-75
2021/05/31 00:32:28;;;;;;;4.20;2.50;;;;;;;14.69;38.12;95593.00;6947829;28;20219;-75
2021/05/31 00:35:49;;;;;;;3.53;2.57;;;;;;;14.69;38.57;95588.47;6963852;28;20219;-75
2021/05/31 00:39:12;;;;;;;4.83;2.33;;;;;;;14.71;38.59;95593.69;6958698;28;20227;-74
2021/05/31 00:42:34;;;;;;;4.70;2.93;;;;;;;14.72;38.31;95592.69;6972351;28;20235;-75
2021/05/31 00:45:55;;;;;;;3.70;2.53;;;;;;;14.64;38.17;95592.63;6942873;28;20227;-74
2021/05/31 00:49:21;;;;;;;2.97;2.70;;;;;;;14.63;38.47;95578.44;6962588;28;20247;-74
2021/05/31 00:52:44;;;;;;;5.57;2.97;;;;;;;14.62;38.68;95590.09;6961504;28;20218;-75
2021/05/31 00:56:05;;;;;;;3.77;2.30;;;;;;;14.61;38.67;95585.75;6932637;28;20650;-75
2021/05/31 00:59:25;;;;;;;6.50;2.87;;;;;;;14.58;38.58;95586.91;6943965;28;20228;-74
2021/05/31 01:02:46;;;;;;;3.40;2.40;;;;;;;14.55;38.56;95581.84;6967298;28;20645;-74
2021/05/31 01:06:07;;;;;;;2.93;2.47;;;;;;;14.51;38.71;95582.31;6958909;28;20603;-73
2021/05/31 01:09:35;;;;;;;3.40;2.57;;;;;;;14.47;38.78;95578.25;6952653;28;20297;-75
2021/05/31 01:13:19;;;;;;;4.43;2.67;;;;;;;14.45;38.68;95580.22;6957763;28;20230;-75
2021/05/31 01:16:49;;;;;;;2.77;2.50;;;;;;;14.42;38.89;95576.06;6951356;28;20247;-74
2021/05/31 01:20:21;;;;;;;2.90;2.10;;;;;;;14.39;38.69;95571.00;6943901;28;20243;-75
2021/05/31 01:23:49;;;;;;;3.73;2.63;;;;;;;14.36;38.81;95571.31;6962059;28;20218;-75
2021/05/31 01:27:22;;;;;;;3.33;2.43;;;;;;;14.35;38.67;95574.09;6960384;28;20225;-75
2021/05/31 01:30:47;;;;;;;5.07;2.70;;;;;;;14.31;38.75;95580.72;6968844;28;20614;-74
2021/05/31 01:34:12;;;;;;;3.57;2.70;;;;;;;14.29;38.73;95578.19;6964956;28;20214;-75
2021/05/31 01:37:33;;;;;;;3.23;2.60;;;;;;;14.31;38.70;95581.56;6951103;28;20218;-75
2021/05/31 01:40:54;;;;;;;3.63;2.60;;;;;;;14.28;38.59;95576.53;6956332;28;20711;-75
2021/05/31 01:44:16;;;;;;;2.80;2.53;;;;;;;14.28;38.82;95581.03;6949940;28;20767;-74
2021/05/31 01:47:41;;;;;;;3.40;2.80;;;;;;;14.27;38.67;95576.69;6966263;28;20230;-75
2021/05/31 01:51:04;;;;;;;4.07;2.80;;;;;;;14.29;38.82;95574.69;6953502;28;20214;-75
2021/05/31 01:54:26;;;;;;;4.07;2.70;;;;;;;14.29;38.82;95580.03;6958750;28;20770;-74
2021/05/31 01:57:47;;;;;;;5.87;2.90;;;;;;;14.25;38.87;95573.31;6947334;28;20583;-75
2021/05/31 02:01:15;;;;;;;4.73;2.63;;;;;;;14.24;39.15;95574.28;6942974;28;20678;-75
2021/05/31 02:04:40;;;;;;;3.50;2.67;;;;;;;14.23;39.06;95572.63;6954775;28;20704;-75
2021/05/31 02:08:03;;;;;;;3.73;2.80;;;;;;;14.24;39.05;95572.47;6945303;28;20271;-75
2021/05/31 02:11:41;;;;;;;2.80;2.33;;;;;;;14.29;39.24;95570.19;6952107;28;20572;-75
2021/05/31 02:15:10;;;;;;;4.10;2.80;;;;;;;14.29;39.01;95572.84;6966283;28;20216;-75
2021/05/31 02:18:45;;;;;;;3.07;2.40;;;;;;;14.32;39.27;95569.91;6966667;28;20260;-74
2021/05/31 02:22:08;;;;;;;2.90;2.60;;;;;;;14.30;39.47;95574.53;6946890;28;20681;-75
2021/05/31 02:25:29;;;;;;;3.13;2.83;;;;;;;14.25;39.21;95570.63;6961693;28;20214;-76
2021/05/31 02:29:01;;;;;;;2.53;2.33;;;;;;;14.17;39.43;95574.91;6964501;28;20218;-75
2021/05/31 02:32:27;;;;;;;5.70;3.10;;;;;;;14.11;39.20;95567.50;6955617;28;20235;-76
2021/05/31 02:35:52;;;;;;;7.40;2.93;;;;;;;14.06;39.15;95567.13;6971670;28;20236;-75
2021/05/31 02:39:13;;;;;;;3.43;2.57;;;;;;;14.03;39.27;95570.06;6942012;28;20237;-75
2021/05/31 02:42:43;;;;;;;4.10;3.10;;;;;;;14.02;39.06;95571.06;6958885;28;20230;-75
2021/05/31 02:46:04;;;;;;;3.40;2.67;;;;;;;13.97;39.34;95567.16;6973376;28;20720;-75
2021/05/31 02:49:26;;;;;;;3.73;2.30;;;;;;;13.96;39.31;95566.31;6977290;28;20676;-74
2021/05/31 02:52:51;;;;;;;3.43;2.57;;;;;;;13.89;39.32;95561.72;6964155;28;20273;-75
2021/05/31 02:56:12;;;;;;;4.03;2.60;;;;;;;13.84;39.36;95572.00;6962306;28;20278;-75
2021/05/31 02:59:32;;;;;;;3.80;2.90;;;;;;;13.82;39.75;95563.31;6965136;28;20261;-75
2021/05/31 03:02:53;;;;;;;3.97;2.97;;;;;;;13.84;39.86;95567.50;6955320;28;20864;-75
2021/05/31 03:06:14;;;;;;;4.13;2.83;;;;;;;13.82;39.62;95561.50;6955651;28;20223;-75
2021/05/31 03:09:39;;;;;;;3.67;2.90;;;;;;;13.80;39.70;95563.44;6966167;28;20226;-76
2021/05/31 03:13:00;;;;;;;3.80;2.83;;;;;;;13.77;39.54;95568.25;6950843;28;20270;-75
2021/05/31 03:16:21;;;;;;;5.00;2.60;;;;;;;13.71;39.86;95561.69;6948371;28;20286;-75
2021/05/31 03:19:41;;;;;;;3.13;2.63;;;;;;;13.71;39.89;95567.88;6973637;28;20218;-75
2021/05/31 03:23:02;;;;;;;4.03;2.50;;;;;;;13.68;39.72;95554.78;6948961;28;20273;-75
2021/05/31 03:26:24;;;;;;;3.60;3.17;;;;;;;13.62;39.81;95560.75;6948405;28;20228;-75
2021/05/31 03:29:44;;;;;;;3.23;2.87;;;;;;;13.59;39.84;95560.19;6951363;28;20219;-75
2021/05/31 03:33:05;;;;;;;2.80;2.60;;;;;;;13.56;40.06;95564.00;6949631;28;20239;-76
2021/05/31 03:36:26;;;;;;;3.57;2.60;;;;;;;13.57;39.93;95567.50;6970622;28;20224;-75
2021/05/31 03:39:46;;;;;;;3.00;2.70;;;;;;;13.58;40.05;95558.53;6964561;28;20580;-75
2021/05/31 03:43:06;;;;;;;6.00;2.60;;;;;;;13.59;39.98;95566.34;6976028;28;20223;-75
2021/05/31 03:46:27;;;;;;;3.27;2.60;;;;;;;13.57;40.30;95565.69;6966975;28;20222;-76
2021/05/31 03:49:49;;;;;;;3.47;2.70;;;;;;;13.52;40.50;95565.28;6976750;28;20225;-75
2021/05/31 03:53:10;;;;;;;3.20;2.70;;;;;;;13.48;40.48;95569.19;6973456;28;20214;-75
2021/05/31 03:56:34;;;;;;;4.23;2.77;;;;;;;13.43;40.50;95563.47;6938802;28;20212;-75
2021/05/31 03:59:55;;;;;;;4.43;2.87;;;;;;;13.46;40.45;95565.84;6978264;28;20586;-76
2021/05/31 04:03:18;;;;;;;6.70;2.73;;;;;;;13.46;40.17;95560.53;6943896;28;20243;-75
2021/05/31 04:13:37;;;;;;;6.03;2.60;;;;;;;13.56;40.19;95566.66;6955111;28;20211;-78
2021/05/31 04:17:00;;;;;;;5.87;2.67;;;;;;;13.61;39.96;95567.06;6951864;28;20623;-74
2021/05/31 04:20:23;;;;;;;3.10;2.70;;;;;;;13.67;39.89;95569.16;6933029;28;20224;-75
2021/05/31 04:23:43;;;;;;;4.53;2.87;;;;;;;13.78;39.82;95576.13;6944717;28;20708;-75
2021/05/31 04:27:04;;;;;;;2.73;2.40;;;;;;;13.86;40.13;95578.03;6922966;28;20314;-75
2021/05/31 04:30:24;;;;;;;6.83;2.70;;;;;;;13.97;39.93;95581.38;6932023;28;20285;-74
2021/05/31 04:33:45;;;;;;;3.10;2.80;;;;;;;14.08;39.61;95574.97;6948649;28;20208;-69
2021/05/31 04:37:05;;;;;;;3.57;2.57;;;;;;;14.19;39.60;95588.94;6934839;28;20215;-75
2021/05/31 04:40:27;;;;;;;3.67;2.47;;;;;;;14.34;39.65;95597.28;6949412;28;20225;-76
2021/05/31 04:43:48;;;;;;;4.70;2.60;;;;;;;14.50;39.41;95594.81;6934403;28;20327;-77
2021/05/31 04:47:10;;;;;;;2.97;2.53;;;;;;;14.67;38.94;95592.31;6935503;28;20215;-74
2021/05/31 04:50:31;;;;;;;3.43;2.50;;;;;;;14.82;38.47;95588.94;6942005;28;20225;-76
2021/05/31 04:53:53;;;;;;;3.57;2.67;;;;;;;14.94;38.09;95595.72;6954990;28;20634;-75
2021/05/31 04:57:15;;;;;;;5.03;2.70;;;;;;;15.08;37.89;95588.16;6931079;28;20697;-75
2021/05/31 05:00:36;;;;;;;3.00;2.50;;;;;;;15.18;37.21;95589.75;6952663;28;21026;-75
2021/05/31 05:03:56;;;;;;;3.90;2.80;;;;;;;15.29;37.19;95594.81;6945977;28;20223;-75
2021/05/31 05:07:21;;;;;;;2.67;2.47;;;;;;;15.34;37.35;95595.19;6947313;28;20216;-75
2021/05/31 05:10:42;;;;;;;3.37;2.67;;;;;;;15.38;36.71;95590.38;6948959;28;20214;-75
2021/05/31 05:14:02;;;;;;;3.30;2.70;;;;;;;15.42;36.81;95599.78;6949178;28;20204;-76
2021/05/31 05:17:25;;;;;;;4.50;2.40;;;;;;;15.46;36.10;95585.91;6947811;28;20245;-76
2021/05/31 05:20:48;;;;;;;3.50;2.40;;;;;;;15.52;36.47;95599.69;6935775;28;20891;-77
2021/05/31 05:24:10;;;;;;;3.23;2.90;;;;;;;15.56;36.19;95585.00;6954329;28;20573;-75
2021/05/31 05:27:31;;;;;;;3.13;2.70;;;;;;;15.64;36.14;95577.84;6974059;28;20618;-75
2021/05/31 05:30:51;;;;;;;2.73;2.47;;;;;;;15.73;35.77;95595.66;6961345;28;20669;-75
2021/05/31 05:34:14;;;;;;;3.00;2.63;;;;;;;15.80;35.22;95594.00;6956611;28;20214;-76
2021/05/31 05:37:52;;;;;;;3.40;2.43;;;;;;;15.85;35.97;95591.69;6954326;28;20352;-75
2021/05/31 05:48:30;;;;;;;3.63;2.80;;;;;;;16.01;35.60;95596.28;6964850;28;20655;-76
2021/05/31 05:51:51;;;;;;;4.23;3.17;;;;;;;16.07;35.30;95592.13;6969878;28;20206;-74
2021/05/31 05:55:12;;;;;;;2.57;2.37;;;;;;;16.04;35.45;95595.97;6948068;28;20231;-75
2021/05/31 05:58:32;;;;;;;3.30;2.70;;;;;;;16.12;35.61;95596.00;6956379;28;20214;-75
2021/05/31 06:01:53;;;;;;;4.17;2.67;;;;;;;16.15;35.36;95597.50;6965362;28;20284;-75
2021/05/31 06:05:14;;;;;;;2.60;2.40;;;;;;;16.28;35.60;95601.41;6955818;28;20704;-75
2021/05/31 06:08:37;;;;;;;5.60;2.53;;;;;;;16.41;35.08;95610.81;6949254;28;20738;-75
2021/05/31 06:11:58;;;;;;;4.60;2.40;;;;;;;16.43;34.87;95611.50;6933763;28;20215;-76
2021/05/31 06:15:18;;;;;;;5.27;2.50;;;;;;;16.48;34.68;95601.97;6953314;28;20250;-76
2021/05/31 06:18:39;;;;;;;3.43;2.50;;;;;;;16.46;34.60;95608.50;6961920;28;20207;-76
2021/05/31 06:21:59;;;;;;;3.27;2.70;;;;;;;16.44;34.73;95608.69;6964414;28;20258;-76
2021/05/31 06:25:22;;;;;;;4.17;2.67;;;;;;;16.45;34.75;95607.66;6968228;28;20215;-71
2021/05/31 06:28:45;;;;;;;3.23;2.47;;;;;;;16.52;34.94;95605.16;6964251;28;20661;-76
2021/05/31 06:32:08;;;;;;;3.47;2.50;;;;;;;16.57;35.37;95609.03;6942015;28;20214;-76
2021/05/31 06:35:31;;;;;;;4.63;2.50;;;;;;;16.76;35.25;95607.06;6929705;28;20313;-75
2021/05/31 06:38:51;;;;;;;5.83;2.47;;;;;;;16.92;34.67;95602.59;6952928;28;20241;-76
2021/05/31 06:42:12;;;;;;;2.93;2.33;;;;;;;17.04;34.49;95597.72;6953869;28;20220;-75
2021/05/31 06:45:37;;;;;;;3.10;2.50;;;;;;;17.14;34.23;95606.47;6956025;28;20302;-75
2021/05/31 06:48:57;;;;;;;4.67;2.60;;;;;;;17.16;34.01;95601.75;6939443;28;20221;-75
2021/05/31 06:52:18;;;;;;;2.60;2.20;;;;;;;17.20;34.05;95592.38;6961251;28;20219;-77
2021/05/31 06:55:39;;;;;;;3.70;2.40;;;;;;;17.25;33.61;95594.56;6947123;28;20222;-75
2021/05/31 06:59:04;;;;;;;2.90;2.50;;;;;;;17.31;34.01;95594.69;6948522;28;20244;-75
2021/05/31 07:02:24;;;;;;;3.93;2.63;;;;;;;17.37;33.53;95593.19;6942656;28;20225;-75
2021/05/31 07:05:45;;;;;;;2.67;2.20;;;;;;;17.36;33.88;95588.81;6938339;28;20219;-75
2021/05/31 07:09:05;;;;;;;4.70;2.53;;;;;;;17.53;34.23;95587.78;6950176;28;20229;-76
2021/05/31 07:12:28;;;;;;;2.50;2.30;;;;;;;17.72;34.10;95575.88;6955763;28;20213;-75
2021/05/31 07:15:49;;;;;;;5.73;2.60;;;;;;;17.87;33.47;95580.34;6942680;28;20223;-76
2021/05/31 07:19:10;;;;;;;4.17;2.57;;;;;;;17.96;33.66;95579.31;6962893;28;20231;-75
2021/05/31 07:22:31;;;;;;;3.93;2.80;;;;;;;18.02;33.15;95575.94;6962182;28;20230;-76
2021/05/31 07:25:52;;;;;;;4.60;2.57;;;;;;;18.22;33.44;95576.34;6976899;28;20220;-76
2021/05/31 07:29:12;;;;;;;5.53;3.17;;;;;;;18.38;33.17;95583.50;6959982;28;20675;-76
2021/05/31 07:32:36;;;;;;;3.17;2.70;;;;;;;18.55;32.89;95578.91;6949659;28;20274;-75
2021/05/31 07:35:58;;;;;;;3.43;2.87;;;;;;;18.73;32.93;95576.78;6957780;28;20219;-76
2021/05/31 07:39:18;;;;;;;5.27;2.80;;;;;;;18.78;32.00;95569.84;6944830;28;20307;-76
2021/05/31 07:42:41;;;;;;;3.30;2.50;;;;;;;18.80;32.03;95577.75;6959000;28;20217;-76
2021/05/31 07:46:04;;;;;;;7.00;2.57;;;;;;;18.75;31.85;95578.28;6949181;28;20227;-76
2021/05/31 07:49:24;;;;;;;3.40;2.27;;;;;;;18.81;32.25;95568.66;6953401;28;20276;-76
2021/05/31 07:52:48;;;;;;;3.77;2.23;;;;;;;18.85;32.16;95570.81;6952377;28;20250;-76
2021/05/31 07:56:09;;;;;;;3.17;2.10;;;;;;;18.98;31.43;95566.69;6962904;28;20224;-76
2021/05/31 07:59:29;;;;;;;4.00;2.27;;;;;;;19.07;31.31;95569.13;6943312;28;20222;-76
2021/05/31 08:02:55;;;;;;;4.67;3.00;;;;;;;19.23;31.42;95571.69;6963512;28;20222;-76
2021/05/31 08:06:16;;;;;;;3.73;2.40;;;;;;;19.50;31.53;95556.84;6944345;28;20211;-76
2021/05/31 08:09:37;;;;;;;4.20;2.63;;;;;;;19.58;31.22;95555.91;6958560;28;20983;-76
2021/05/31 08:12:57;;;;;;;4.83;2.70;;;;;;;19.75;31.26;95553.88;6957333;28;20685;-76
2021/05/31 08:16:18;;;;;;;3.13;2.57;;;;;;;19.95;30.54;95550.44;6945560;28;20234;-75
2021/05/31 08:19:39;;;;;;;3.03;2.50;;;;;;;20.09;29.92;95549.59;6953882;28;20227;-76
2021/05/31 08:23:01;;;;;;;2.87;2.20;;;;;;;20.21;30.85;95549.97;6945685;28;20666;-75
2021/05/31 08:26:24;;;;;;;3.70;3.17;;;;;;;20.36;30.41;95550.81;6947123;28;20640;-76
2021/05/31 08:29:44;;;;;;;3.03;2.40;;;;;;;20.51;30.50;95553.47;6961452;28;20462;-76
2021/05/31 08:33:08;;;;;;;3.63;2.33;;;;;;;20.61;29.97;95547.78;6961390;28;20575;-76
2021/05/31 08:36:33;;;;;;;5.33;2.30;;;;;;;20.72;29.95;95544.59;6950701;28;20206;-76
2021/05/31 08:39:55;;;;;;;3.53;2.10;;;;;;;20.97;30.20;95545.88;6952953;28;20226;-76
2021/05/31 08:43:18;;;;;;;2.80;2.40;;;;;;;21.21;29.78;95534.72;6946091;28;20241;-76
2021/05/31 08:46:39;;;;;;;2.50;2.30;;;;;;;21.45;29.47;95538.00;6942252;28;20692;-76
2021/05/31 08:50:02;;;;;;;3.83;2.40;;;;;;;21.68;29.25;95530.47;6930194;28;20211;-76
2021/05/31 08:53:24;;;;;;;4.27;2.70;;;;;;;21.89;29.16;95532.28;6929337;28;20258;-76
2021/05/31 08:56:45;;;;;;;3.27;2.47;;;;;;;22.09;28.49;95534.09;6948126;28;20354;-76
2021/05/31 09:00:11;;;;;;;3.70;2.50;;;;;;;22.25;28.51;95535.63;6934740;28;20238;-77
2021/05/31 09:03:34;;;;;;;3.97;2.27;;;;;;;22.31;27.93;95540.25;6939648;28;20219;-75
2021/05/31 09:06:56;;;;;;;3.47;2.57;;;;;;;22.52;28.56;95545.53;6928498;28;20211;-76
2021/05/31 09:10:20;;;;;;;4.77;1.97;;;;;;;22.55;27.57;95546.97;6934208;28;20213;-76
2021/05/31 09:13:43;;;;;;;3.57;2.40;;;;;;;22.58;27.21;95550.13;6946640;28;20214;-76
2021/05/31 09:17:04;;;;;;;3.33;2.40;;;;;;;22.65;27.97;95540.16;6928290;28;21066;-75
2021/05/31 09:20:26;;;;;;;2.63;2.40;;;;;;;22.82;27.58;95535.25;6947879;28;20212;-76
2021/05/31 09:23:52;;;;;;;5.40;2.53;;;;;;;23.09;27.74;95534.22;6942660;28;20231;-76
2021/05/31 09:27:16;;;;;;;2.80;2.30;;;;;;;23.43;26.74;95526.97;6955515;28;20215;-75
2021/05/31 09:30:46;;;;;;;4.43;2.00;;;;;;;23.75;26.61;95534.28;6972902;28;20586;-75
2021/05/31 09:34:11;;;;;;;2.67;2.20;;;;;;;24.15;26.14;95535.03;6948302;28;20210;-75
2021/05/31 09:37:48;;;;;;;2.80;2.37;;;;;;;24.42;24.35;95541.25;6933633;28;20228;-75
2021/05/31 09:41:08;;;;;;;3.10;2.27;;;;;;;24.91;25.39;95529.75;6945224;28;20226;-76
2021/05/31 09:44:29;;;;;;;3.08;2.50;;;;;;;25.79;24.34;95532.47;6937633;28;20253;-75
2021/05/31 09:47:50;;;;;;;2.83;2.38;;;;;;;26.79;23.60;95534.72;6941218;28;20285;-75
2021/05/31 09:51:13;;;;;;;4.95;2.40;;;;;;;27.73;22.17;95525.78;6931998;28;20247;-76
2021/05/31 09:54:47;;;;;;;3.30;2.80;;;;;;;28.67;21.03;95534.75;6949249;28;20223;-75
2021/05/31 09:58:16;;;;;;;2.78;2.58;;;;;;;29.58;20.72;95528.31;6978415;27;20601;-74
2021/05/31 10:01:39;;;;;;;2.95;2.10;;;;;;;30.32;20.08;95506.25;6942151;28;20214;-75
2021/05/31 10:08:43;;;;;;;3.30;2.45;;;;;;;30.62;19.00;95504.75;7000290;28;20238;-76
2021/05/31 10:12:07;;;;;;;3.13;2.55;;;;;;;31.27;18.92;95514.03;6976941;28;20217;-72
2021/05/31 10:15:36;;;;;;;5.55;2.50;;;;;;;31.79;18.39;95522.50;6976350;28;20218;-75
2021/05/31 10:18:56;;;;;;;2.72;2.38;;;;;;;32.09;17.70;95510.91;6987855;28;20586;-74
2021/05/31 10:22:17;;;;;;;7.00;3.22;;;;;;;32.55;17.44;95521.09;6989673;28;20730;-75
2021/05/31 10:25:43;;;;;;;3.42;3.10;;;;;;;32.72;16.83;95515.47;6991707;28;20213;-75
2021/05/31 10:29:06;;;;;;;3.35;2.65;;;;;;;32.97;16.67;95514.72;6983631;28;20225;-76
2021/05/31 10:32:29;;;;;;;6.15;2.90;;;;;;;33.10;16.35;95511.47;6998955;28;20225;-75
2021/05/31 10:35:55;;;;;;;3.75;2.28;;;;;;;33.30;16.12;95511.53;6992278;28;20219;-76
2021/05/31 10:39:26;;;;;;;3.22;2.55;;;;;;;33.39;16.75;95512.69;7002100;28;20761;-75
2021/05/31 10:42:52;;;;;;;3.95;2.40;;;;;;;33.31;16.27;95498.59;7004950;28;20265;-75
2021/05/31 10:46:15;;;;;;;6.47;2.50;;;;;;;32.70;16.91;95507.47;7024196;28;20385;-76
2021/05/31 10:49:38;;;;;;;2.63;2.08;;;;;;;31.63;17.82;95498.75;7026059;28;20210;-75
2021/05/31 10:52:59;;;;;;;5.13;2.88;;;;;;;30.23;19.15;95508.56;7009463;28;20211;-75
2021/05/31 10:56:29;;;;;;;3.65;2.83;;;;;;;29.13;21.17;95503.69;7002192;28;20317;-75
2021/05/31 10:59:51;;;;;;;5.45;2.85;;;;;;;28.10;20.92;95501.81;7003007;28;20218;-76
2021/05/31 11:03:12;;;;;;;3.80;2.78;;;;;;;27.55;21.81;95500.50;6989585;28;20217;-75
2021/05/31 11:06:38;;;;;;;2.83;2.50;;;;;;;27.07;22.36;95511.50;6985240;28;20604;-75
2021/05/31 11:09:59;;;;;;;4.25;2.20;;;;;;;26.35;23.84;95502.38;6998916;28;20238;-75
2021/05/31 11:13:19;;;;;;;2.95;2.60;;;;;;;25.87;23.91;95513.97;6989289;28;20310;-75
2021/05/31 11:16:52;;;;;;;3.83;2.60;;;;;;;25.29;24.27;95518.00;6985831;28;20286;-74
2021/05/31 11:20:16;;;;;;;3.95;2.20;;;;;;;25.21;24.58;95508.22;6992282;28;20596;-74
2021/05/31 11:23:37;;;;;;;4.05;2.28;;;;;;;24.97;25.13;95503.59;6974507;28;20219;-75
2021/05/31 11:27:00;;;;;;;4.07;2.58;;;;;;;24.81;25.13;95502.19;6981271;28;20213;-75
2021/05/31 11:30:23;;;;;;;6.03;2.33;;;;;;;24.61;25.58;95509.59;6989241;28;20238;-75
2021/05/31 11:33:43;;;;;;;2.73;2.27;;;;;;;24.40;26.19;95508.03;6970158;28;20298;-75
2021/05/31 11:37:03;;;;;;;3.70;2.33;;;;;;;24.10;26.25;95504.97;6972086;28;20230;-75
2021/05/31 11:40:26;;;;;;;4.87;2.27;;;;;;;24.12;27.06;95496.63;6993879;28;20318;-75
2021/05/31 11:43:50;;;;;;;4.33;2.50;;;;;;;24.15;26.64;95507.03;7008132;28;20615;-75
2021/05/31 11:47:13;;;;;;;4.10;2.30;;;;;;;24.12;26.65;95496.63;7001868;28;20225;-75
2021/05/31 11:50:35;;;;;;;4.33;2.37;;;;;;;24.05;26.66;95495.81;6987301;28;20216;-75
2021/05/31 11:53:55;;;;;;;2.97;2.03;;;;;;;24.10;27.58;95482.44;6986145;28;20629;-76
2021/05/31 11:57:20;;;;;;;4.17;2.43;;;;;;;24.17;27.09;95483.28;6985633;28;20717;-75
2021/05/31 12:00:44;;;;;;;4.77;2.20;;;;;;;24.14;27.57;95486.41;6990404;28;20213;-75
2021/05/31 12:04:04;;;;;;;6.80;2.80;;;;;;;24.03;27.25;95479.78;6976598;28;20213;-75
2021/05/31 12:07:25;;;;;;;4.67;2.40;;;;;;;24.00;27.96;95488.31;6992053;28;20284;-75
2021/05/31 12:10:46;;;;;;;3.83;2.50;;;;;;;23.78;27.40;95476.09;6978974;28;20218;-75
2021/05/31 12:14:11;;;;;;;4.00;2.30;;;;;;;23.68;27.86;95471.09;6987332;28;20219;-76
2021/05/31 12:17:32;;;;;;;4.10;2.37;;;;;;;23.60;27.63;95465.03;6976539;28;20312;-75
2021/05/31 12:21:02;;;;;;;7.03;2.30;;;;;;;23.63;28.03;95465.47;6997917;28;20221;-75
2021/05/31 12:24:29;;;;;;;3.87;2.50;;;;;;;23.50;27.60;95469.03;6989044;28;20211;-76
2021/05/31 12:27:51;;;;;;;5.37;2.13;;;;;;;23.43;28.00;95464.66;6982009;28;20246;-75
2021/05/31 12:31:15;;;;;;;3.20;2.00;;;;;;;23.42;28.53;95471.94;7001115;28;20707;-76
2021/05/31 12:34:39;;;;;;;2.87;1.90;;;;;;;23.56;28.67;95458.38;6977770;28;20229;-76
2021/05/31 12:38:02;;;;;;;2.40;2.20;;;;;;;23.62;28.11;95458.38;6977490;28;20235;-76
2021/05/31 12:41:24;;;;;;;2.63;1.90;;;;;;;23.61;28.34;95448.59;6994748;28;20238;-76
2021/05/31 12:44:47;;;;;;;2.17;1.87;;;;;;;23.75;28.24;95460.22;6980958;28;20207;-75
2021/05/31 12:48:19;;;;;;;6.83;2.10;;;;;;;23.76;28.99;95451.03;6999655;28;20589;-76
2021/05/31 12:51:52;;;;;;;4.43;2.43;;;;;;;23.74;28.12;95455.88;7002902;28;20213;-76
2021/05/31 12:55:19;;;;;;;7.00;2.23;;;;;;;23.66;27.64;95451.50;7002020;28;20317;-76
2021/05/31 12:58:39;;;;;;;2.60;1.97;;;;;;;23.61;27.97;95448.59;6988277;28;20332;-75
2021/05/31 13:02:02;;;;;;;4.47;2.10;;;;;;;23.52;27.68;95439.00;6986566;28;20212;-76
2021/05/31 13:05:28;;;;;;;3.30;2.20;;;;;;;23.44;27.78;95442.72;6987372;28;20310;-77
2021/05/31 13:08:51;;;;;;;5.47;2.17;;;;;;;23.36;28.82;95440.25;6974486;28;20205;-76
2021/05/31 13:12:12;;;;;;;1.90;1.70;;;;;;;23.50;28.56;95433.78;6988991;28;20289;-76
2021/05/31 13:15:36;;;;;;;2.73;2.10;;;;;;;23.46;28.63;95431.72;6978279;28;20207;-76
2021/05/31 13:19:00;;;;;;;4.47;2.10;;;;;;;23.37;28.26;95436.50;6986644;28;20737;-76
2021/05/31 13:22:20;;;;;;;2.57;1.97;;;;;;;23.40;27.99;95438.78;7003361;28;20275;-76
2021/05/31 13:25:52;;;;;;;4.37;2.23;;;;;;;23.50;28.19;95433.78;6998855;28;20222;-76
2021/05/31 13:29:13;;;;;;;2.10;1.77;;;;;;;23.62;29.58;95431.28;6996926;28;20274;-75
2021/05/31 13:32:35;;;;;;;3.63;1.70;;;;;;;23.78;29.45;95429.97;6982444;28;20212;-75
2021/05/31 13:35:58;;;;;;;2.20;1.93;;;;;;;23.81;27.49;95429.53;6978730;28;20656;-76
2021/05/31 13:39:23;;;;;;;3.73;1.80;;;;;;;23.67;27.37;95425.22;6989605;28;20213;-76
2021/05/31 13:43:02;;;;;;;2.80;2.00;;;;;;;23.57;27.26;95430.25;6981063;28;20211;-76
2021/05/31 13:46:22;;;;;;;2.13;1.70;;;;;;;23.45;27.28;95417.34;6985689;28;20260;-76
2021/05/31 13:49:43;;;;;;;2.33;1.67;;;;;;;23.44;26.87;95412.06;6999176;28;20207;-76
2021/05/31 13:53:06;;;;;;;2.80;1.83;;;;;;;23.37;27.28;95408.56;6978852;28;20776;-76
2021/05/31 13:56:26;;;;;;;2.13;1.70;;;;;;;23.40;27.29;95410.84;6979810;28;20732;-76
2021/05/31 13:59:47;;;;;;;5.27;1.50;;;;;;;23.41;27.25;95415.22;6987013;28;20217;-76
2021/05/31 14:03:07;;;;;;;2.70;1.73;;;;;;;23.52;27.29;95418.16;6943817;28;20926;-76
2021/05/31 14:06:28;;;;;;;1.63;1.53;;;;;;;23.62;27.20;95414.16;6986604;28;20229;-76
2021/05/31 14:09:48;;;;;;;1.97;1.50;;;;;;;23.53;26.79;95408.16;6962217;28;20317;-74
2021/05/31 14:13:12;;;;;;;3.90;1.70;;;;;;;23.54;26.72;95400.84;6987552;28;20306;-75
2021/05/31 14:16:35;;;;;;;3.57;1.70;;;;;;;23.52;26.27;95410.03;6982773;28;20213;-76
2021/05/31 14:19:56;;;;;;;4.13;1.43;;;;;;;23.42;26.14;95400.63;6972058;28;20638;-76
2021/05/31 14:23:16;;;;;;;2.00;1.47;;;;;;;23.38;27.58;95399.41;7000125;28;20711;-76
2021/05/31 14:26:39;;;;;;;3.60;2.03;;;;;;;23.41;26.87;95402.50;6996136;28;20216;-75
2021/05/31 14:30:00;;;;;;;2.83;1.37;;;;;;;23.48;26.47;95400.66;6989033;28;20229;-77
2021/05/31 14:33:20;;;;;;;2.43;1.60;;;;;;;23.50;26.00;95403.13;6966294;28;20222;-75
2021/05/31 14:36:41;;;;;;;2.80;1.93;;;;;;;23.39;25.99;95398.34;6993768;28;20234;-76
2021/05/31 14:40:04;;;;;;;3.13;1.67;;;;;;;23.33;26.25;95396.50;6991053;28;20210;-76
2021/05/31 14:43:24;;;;;;;3.33;1.87;;;;;;;23.41;27.30;95396.25;6988447;28;20244;-76
2021/05/31 14:46:45;;;;;;;1.77;1.50;;;;;;;23.45;26.82;95386.69;7004200;28;20214;-76
2021/05/31 14:50:07;;;;;;;1.90;1.70;;;;;;;23.58;27.02;95383.13;6989917;28;20210;-76
2021/05/31 14:53:28;;;;;;;5.73;1.80;;;;;;;23.69;27.39;95380.56;6975227;28;20217;-76
2021/05/31 14:56:50;;;;;;;5.53;1.53;;;;;;;23.70;26.37;95381.41;6999935;28;20223;-76
2021/05/31 15:00:13;;;;;;;3.77;1.87;;;;;;;23.65;26.62;95381.19;6976383;28;20234;-75
2021/05/31 15:03:34;;;;;;;3.93;1.50;;;;;;;23.67;26.71;95379.97;6987684;28;20205;-76
2021/05/31 15:06:54;;;;;;;5.53;1.67;;;;;;;23.73;26.67;95386.41;6954655;28;20238;-76
2021/05/31 15:10:16;;;;;;;4.40;1.93;;;;;;;23.62;26.01;95389.78;7002641;28;20215;-76
2021/05/31 15:13:37;;;;;;;6.20;1.77;;;;;;;23.45;26.03;95381.25;6979361;28;20209;-76
2021/05/31 15:16:59;;;;;;;3.57;1.70;;;;;;;23.43;26.78;95386.88;6989838;28;20210;-76
2021/05/31 15:20:20;;;;;;;4.60;1.80;;;;;;;23.48;26.48;95378.97;6981739;28;20226;-77
2021/05/31 15:23:41;;;;;;;3.97;1.80;;;;;;;23.39;26.59;95376.66;6987601;28;20207;-76
2021/05/31 15:27:02;;;;;;;2.90;1.70;;;;;;;23.23;26.12;95372.53;6999008;28;20219;-76
2021/05/31 15:30:23;;;;;;;2.53;1.77;;;;;;;23.09;26.46;95371.72;6986591;28;20324;-76
2021/05/31 15:33:44;;;;;;;2.87;2.00;;;;;;;23.09;26.50;95371.72;6955137;28;20235;-76
2021/05/31 15:37:05;;;;;;;4.40;1.90;;;;;;;23.18;27.56;95371.50;6991744;28;20696;-75
2021/05/31 15:40:25;;;;;;;2.03;1.60;;;;;;;23.19;26.69;95367.75;6970406;28;20246;-76
2021/05/31 15:43:46;;;;;;;3.60;1.77;;;;;;;23.13;26.11;95364.00;7005743;28;20222;-76
2021/05/31 15:47:06;;;;;;;2.20;1.90;;;;;;;23.12;26.14;95364.22;7008835;28;20213;-76
2021/05/31 15:50:30;;;;;;;2.50;1.63;;;;;;;23.06;26.01;95364.00;6998133;28;20691;-76
2021/05/31 15:53:50;;;;;;;2.53;1.40;;;;;;;23.10;26.37;95365.25;7004021;28;20222;-77
2021/05/31 15:57:11;;;;;;;2.00;1.60;;;;;;;23.20;26.31;95355.84;6970950;28;20658;-76
2021/05/31 16:00:34;;;;;;;5.73;1.80;;;;;;;23.27;26.75;95357.53;6971602;28;20218;-75
2021/05/31 16:03:59;;;;;;;5.63;1.83;;;;;;;23.27;26.63;95357.53;6978495;28;20228;-76
2021/05/31 16:07:20;;;;;;;4.70;2.13;;;;;;;23.19;26.22;95351.50;6977460;28;20269;-76
2021/05/31 16:10:44;;;;;;;2.53;1.57;;;;;;;23.19;26.97;95355.03;6979996;28;20211;-77
2021/05/31 16:14:06;;;;;;;2.83;1.87;;;;;;;23.13;26.65;95350.47;6981335;28;20283;-76